North Truro, MA

8:01 PM EDT on September 16, 2014 (GMT -0400)
Great Hills | Change Station
CLOSE
Current Station
Personal Weather Station
Location: Truro, MA
Elevation: 26 ft
Nearby Weather Stations

Elev 26 ft 41.99 °N, 70.08 °W | Updated 13 minutes ago

Mostly Cloudy
Mostly Cloudy
56.7 °F
Feels Like 56.7 °F
N
2.2
Wind Variable Wind from ESE

Today
High -- | Low -- °F
--% Chance of Precip.
Yesterday
High -- | Low -- °F
Precip. -- in
6:21 AM 6:48 PM
Last Quarter, 41% visible
Pressure 29.98 in
Visibility 10.0 miles
Clouds Clear
Dew Point 55 °F
Humidity 95%
Rainfall 0.00 in
Snow Depth Not available.
UV 0 out of 12
Pollen 2.50 out of 12
Air Quality Not available.
Flu Activity Not available.
METAR KPVC 162355Z 10005KT 10SM CLR 14/12 A2998 RMK AO1 10190 20140 402100110 52007

More Conditions Fewer Conditions

Pressure 29.98 in
Visibility 10.0 miles
Clouds Clear
Dew Point 55 °F
Humidity 95%
Rainfall 0.00 in
Snow Depth Not available.
UV 0 out of 12
Pollen 2.50 out of 12
Air Quality Not available.
Flu Activity Not available.
METAR KPVC 162355Z 10005KT 10SM CLR 14/12 A2998 RMK AO1 10190 20140 402100110 52007

More Conditions Fewer Conditions

10-Day Weather Forecast

Almanac

Astronomy

Sep. 16, 2014 Rise Set
Actual Time 6:21 AM EDT 6:48 PM EDT
Civil Twilight 5:53 AM EDT 7:16 PM EDT
Nautical Twilight 5:20 AM EDT 7:49 PM EDT
Astronomical Twilight 4:46 AM EDT 8:23 PM EDT
Moon No Moon Rise 2:13 PM EDT (9/16)
Length of Visible Light 13h 22m
Length of Day
12h 26m
Tomorrow will be 2m 48s shorter.
Last Quarter, 41% of the Moon is Illuminated
Today
Last Quarter
Sep 24
New
Oct 1
First Quarter
Oct 8
Full
Oct 15
Last Quarter

Today's Extremes

State Highs State Lows

Community

WunderPhotos

Upload Photos

1,753,919 photos uploaded!

Nearby

Air Quality

  Air Quality AQ Index Pollutant
Yesterday Good
OZONE
Tuesday Good
PM2.5
Tuesday Good
OZONE
Wednesday Good
PM2.5
Wednesday Good
OZONE

Snow Depth

Station Depth Elevation
No new snow has been reported.

Earthquake Activity

City Distance Mag. Time & Date
No recent earthquake activity has been reported nearby.
Minimum magnitude displayed is 2.5.

Coastal Water Temperatures

Place Temperature
Woods Hole, MA 70.0 °F
Nantucket Island, MA 69.1 °F
Boston, MA 63.0 °F
Fall River, MA 71.1 °F

Nearby Weather Stations